sensor_id;sensor_type;location;lat;lon;timestamp;temperature;humidity
44731;DHT22;30458;47.448;19.032;2022-08-19T00:05:27;29.50;70.20
44731;DHT22;30458;47.448;19.032;2022-08-19T00:15:28;29.50;72.70
44731;DHT22;30458;47.448;19.032;2022-08-19T00:25:31;29.30;71.30
44731;DHT22;30458;47.448;19.032;2022-08-19T00:35:32;29.20;72.00
44731;DHT22;30458;47.448;19.032;2022-08-19T00:45:37;29.10;72.20
44731;DHT22;30458;47.448;19.032;2022-08-19T00:55:45;28.90;71.70
44731;DHT22;30458;47.448;19.032;2022-08-19T01:05:49;28.90;71.40
44731;DHT22;30458;47.448;19.032;2022-08-19T01:16:01;29.00;72.00
44731;DHT22;30458;47.448;19.032;2022-08-19T01:26:02;28.90;71.60
44731;DHT22;30458;47.448;19.032;2022-08-19T01:36:22;28.80;71.40
44731;DHT22;30458;47.448;19.032;2022-08-19T01:46:23;28.80;71.80
44731;DHT22;30458;47.448;19.032;2022-08-19T01:56:26;28.50;72.70
44731;DHT22;30458;47.448;19.032;2022-08-19T02:06:30;28.60;72.00
44731;DHT22;30458;47.448;19.032;2022-08-19T02:16:30;28.40;72.00
44731;DHT22;30458;47.448;19.032;2022-08-19T02:26:32;28.30;72.20
44731;DHT22;30458;47.448;19.032;2022-08-19T02:36:33;28.20;72.90
44731;DHT22;30458;47.448;19.032;2022-08-19T02:46:36;28.20;72.70
44731;DHT22;30458;47.448;19.032;2022-08-19T02:56:41;28.20;73.00
44731;DHT22;30458;47.448;19.032;2022-08-19T03:06:47;27.90;73.90
44731;DHT22;30458;47.448;19.032;2022-08-19T03:16:50;27.90;73.40
44731;DHT22;30458;47.448;19.032;2022-08-19T03:26:55;27.90;73.40
44731;DHT22;30458;47.448;19.032;2022-08-19T03:37:02;27.90;73.70
44731;DHT22;30458;47.448;19.032;2022-08-19T03:47:06;28.00;74.10
44731;DHT22;30458;47.448;19.032;2022-08-19T03:57:09;27.90;74.30
44731;DHT22;30458;47.448;19.032;2022-08-19T04:07:14;27.90;74.30
44731;DHT22;30458;47.448;19.032;2022-08-19T04:17:21;27.80;74.60
44731;DHT22;30458;47.448;19.032;2022-08-19T04:27:25;27.80;74.90
44731;DHT22;30458;47.448;19.032;2022-08-19T04:37:27;27.80;74.60
44731;DHT22;30458;47.448;19.032;2022-08-19T04:47:30;27.90;74.50
44731;DHT22;30458;47.448;19.032;2022-08-19T04:57:33;28.30;73.90
44731;DHT22;30458;47.448;19.032;2022-08-19T05:07:34;28.60;73.90
44731;DHT22;30458;47.448;19.032;2022-08-19T05:17:36;29.00;72.40
44731;DHT22;30458;47.448;19.032;2022-08-19T05:27:40;29.30;71.40
44731;DHT22;30458;47.448;19.032;2022-08-19T05:37:41;29.80;70.50
44731;DHT22;30458;47.448;19.032;2022-08-19T05:47:42;30.30;69.70
44731;DHT22;30458;47.448;19.032;2022-08-19T05:57:43;30.60;69.20
44731;DHT22;30458;47.448;19.032;2022-08-19T06:07:44;30.80;69.00
44731;DHT22;30458;47.448;19.032;2022-08-19T06:17:47;30.90;68.70
44731;DHT22;30458;47.448;19.032;2022-08-19T06:27:48;31.00;68.10
44731;DHT22;30458;47.448;19.032;2022-08-19T06:37:49;31.30;67.70
44731;DHT22;30458;47.448;19.032;2022-08-19T06:47:52;31.60;67.50
44731;DHT22;30458;47.448;19.032;2022-08-19T06:57:56;31.90;66.70
44731;DHT22;30458;47.448;19.032;2022-08-19T07:07:57;32.00;66.40
44731;DHT22;30458;47.448;19.032;2022-08-19T07:18:00;32.20;65.90
44731;DHT22;30458;47.448;19.032;2022-08-19T07:28:01;32.40;65.40
44731;DHT22;30458;47.448;19.032;2022-08-19T07:38:04;32.70;65.60
44731;DHT22;30458;47.448;19.032;2022-08-19T07:48:05;32.90;64.90
44731;DHT22;30458;47.448;19.032;2022-08-19T07:58:06;33.20;63.90
44731;DHT22;30458;47.448;19.032;2022-08-19T08:08:07;33.30;63.70
44731;DHT22;30458;47.448;19.032;2022-08-19T08:18:26;33.50;62.40
44731;DHT22;30458;47.448;19.032;2022-08-19T08:28:27;33.30;62.30
44731;DHT22;30458;47.448;19.032;2022-08-19T08:38:28;33.10;61.90
44731;DHT22;30458;47.448;19.032;2022-08-19T08:48:34;33.10;61.70
44731;DHT22;30458;47.448;19.032;2022-08-19T09:09:01;33.10;62.20
44731;DHT22;30458;47.448;19.032;2022-08-19T09:19:06;33.10;62.60
44731;DHT22;30458;47.448;19.032;2022-08-19T09:29:07;33.20;62.20
44731;DHT22;30458;47.448;19.032;2022-08-19T09:39:09;33.20;61.40
44731;DHT22;30458;47.448;19.032;2022-08-19T09:49:11;33.20;61.60
44731;DHT22;30458;47.448;19.032;2022-08-19T09:59:12;33.20;61.30
44731;DHT22;30458;47.448;19.032;2022-08-19T10:09:14;33.30;61.50
44731;DHT22;30458;47.448;19.032;2022-08-19T10:19:16;33.50;61.40
44731;DHT22;30458;47.448;19.032;2022-08-19T10:29:18;33.40;60.60
44731;DHT22;30458;47.448;19.032;2022-08-19T10:39:21;33.50;60.70
44731;DHT22;30458;47.448;19.032;2022-08-19T10:49:22;33.60;60.70
44731;DHT22;30458;47.448;19.032;2022-08-19T10:59:28;33.70;60.60
44731;DHT22;30458;47.448;19.032;2022-08-19T11:09:29;33.90;60.00
44731;DHT22;30458;47.448;19.032;2022-08-19T11:19:30;34.00;59.30
44731;DHT22;30458;47.448;19.032;2022-08-19T11:29:32;34.10;59.10
44731;DHT22;30458;47.448;19.032;2022-08-19T11:39:36;34.10;58.70
44731;DHT22;30458;47.448;19.032;2022-08-19T11:49:39;34.40;58.30
44731;DHT22;30458;47.448;19.032;2022-08-19T11:59:46;34.50;59.00
44731;DHT22;30458;47.448;19.032;2022-08-19T12:09:48;34.70;57.40
44731;DHT22;30458;47.448;19.032;2022-08-19T12:19:51;34.60;57.60
44731;DHT22;30458;47.448;19.032;2022-08-19T12:29:52;34.50;57.60
44731;DHT22;30458;47.448;19.032;2022-08-19T12:39:55;34.60;58.40
44731;DHT22;30458;47.448;19.032;2022-08-19T12:49:58;34.70;57.20
44731;DHT22;30458;47.448;19.032;2022-08-19T13:00:11;34.80;58.20
44731;DHT22;30458;47.448;19.032;2022-08-19T13:10:20;34.90;57.20
44731;DHT22;30458;47.448;19.032;2022-08-19T13:20:24;35.00;57.70
44731;DHT22;30458;47.448;19.032;2022-08-19T13:30:25;35.10;56.00
44731;DHT22;30458;47.448;19.032;2022-08-19T13:40:51;35.10;57.20
44731;DHT22;30458;47.448;19.032;2022-08-19T13:50:55;35.00;57.10
44731;DHT22;30458;47.448;19.032;2022-08-19T14:00:57;35.00;59.30
44731;DHT22;30458;47.448;19.032;2022-08-19T14:11:01;34.30;63.00
44731;DHT22;30458;47.448;19.032;2022-08-19T14:21:08;33.40;64.90
44731;DHT22;30458;47.448;19.032;2022-08-19T14:31:22;33.00;65.10
44731;DHT22;30458;47.448;19.032;2022-08-19T14:41:27;32.60;65.50
44731;DHT22;30458;47.448;19.032;2022-08-19T14:51:28;32.50;63.80
44731;DHT22;30458;47.448;19.032;2022-08-19T15:01:34;32.20;60.00
44731;DHT22;30458;47.448;19.032;2022-08-19T15:11:36;31.90;59.80
44731;DHT22;30458;47.448;19.032;2022-08-19T15:21:40;31.80;59.60
44731;DHT22;30458;47.448;19.032;2022-08-19T15:31:42;31.70;59.60
44731;DHT22;30458;47.448;19.032;2022-08-19T15:41:45;31.60;59.40
44731;DHT22;30458;47.448;19.032;2022-08-19T15:51:49;31.50;59.90
44731;DHT22;30458;47.448;19.032;2022-08-19T16:01:52;31.30;60.10
44731;DHT22;30458;47.448;19.032;2022-08-19T16:12:12;31.20;60.10
44731;DHT22;30458;47.448;19.032;2022-08-19T16:22:13;31.10;60.30
44731;DHT22;30458;47.448;19.032;2022-08-19T16:32:14;31.20;60.60
44731;DHT22;30458;47.448;19.032;2022-08-19T16:42:15;31.10;60.90
44731;DHT22;30458;47.448;19.032;2022-08-19T16:52:21;30.90;61.90
44731;DHT22;30458;47.448;19.032;2022-08-19T17:02:26;30.70;62.60
44731;DHT22;30458;47.448;19.032;2022-08-19T17:12:27;30.40;63.70
44731;DHT22;30458;47.448;19.032;2022-08-19T17:22:30;30.20;64.50
44731;DHT22;30458;47.448;19.032;2022-08-19T17:32:37;29.70;65.00
44731;DHT22;30458;47.448;19.032;2022-08-19T17:42:41;29.70;64.10
44731;DHT22;30458;47.448;19.032;2022-08-19T17:52:42;29.80;63.50
44731;DHT22;30458;47.448;19.032;2022-08-19T18:02:46;29.70;64.10
44731;DHT22;30458;47.448;19.032;2022-08-19T18:12:49;29.70;64.60
44731;DHT22;30458;47.448;19.032;2022-08-19T18:22:50;29.90;66.80
44731;DHT22;30458;47.448;19.032;2022-08-19T18:32:54;29.60;66.00
44731;DHT22;30458;47.448;19.032;2022-08-19T18:42:55;28.80;71.50
44731;DHT22;30458;47.448;19.032;2022-08-19T18:53:23;28.60;72.90
44731;DHT22;30458;47.448;19.032;2022-08-19T19:03:25;28.50;77.70
44731;DHT22;30458;47.448;19.032;2022-08-19T19:13:29;27.70;80.80
44731;DHT22;30458;47.448;19.032;2022-08-19T19:23:35;25.70;90.40
44731;DHT22;30458;47.448;19.032;2022-08-19T19:33:43;25.60;90.40
44731;DHT22;30458;47.448;19.032;2022-08-19T19:43:46;25.80;90.70
44731;DHT22;30458;47.448;19.032;2022-08-19T19:53:52;26.10;89.60
44731;DHT22;30458;47.448;19.032;2022-08-19T20:03:56;26.10;91.80
44731;DHT22;30458;47.448;19.032;2022-08-19T20:14:16;25.70;92.50
44731;DHT22;30458;47.448;19.032;2022-08-19T20:24:23;25.00;93.90
44731;DHT22;30458;47.448;19.032;2022-08-19T20:34:27;24.40;96.20
44731;DHT22;30458;47.448;19.032;2022-08-19T20:44:32;24.20;96.90
44731;DHT22;30458;47.448;19.032;2022-08-19T20:54:32;23.90;98.40
44731;DHT22;30458;47.448;19.032;2022-08-19T21:04:33;24.00;98.80
44731;DHT22;30458;47.448;19.032;2022-08-19T21:14:41;24.00;98.80
44731;DHT22;30458;47.448;19.032;2022-08-19T21:24:42;24.30;98.90
44731;DHT22;30458;47.448;19.032;2022-08-19T21:34:43;23.80;99.90
44731;DHT22;30458;47.448;19.032;2022-08-19T21:44:46;24.30;99.30
44731;DHT22;30458;47.448;19.032;2022-08-19T21:54:50;24.70;99.10
44731;DHT22;30458;47.448;19.032;2022-08-19T22:04:54;25.10;98.10
44731;DHT22;30458;47.448;19.032;2022-08-19T22:15:00;24.90;98.00
44731;DHT22;30458;47.448;19.032;2022-08-19T22:25:12;25.00;97.70
44731;DHT22;30458;47.448;19.032;2022-08-19T22:35:15;24.90;97.80
44731;DHT22;30458;47.448;19.032;2022-08-19T22:45:16;24.90;98.30
44731;DHT22;30458;47.448;19.032;2022-08-19T22:55:19;24.80;98.50
44731;DHT22;30458;47.448;19.032;2022-08-19T23:05:22;25.10;98.00
44731;DHT22;30458;47.448;19.032;2022-08-19T23:15:26;25.20;97.90
44731;DHT22;30458;47.448;19.032;2022-08-19T23:25:30;25.30;98.10
44731;DHT22;30458;47.448;19.032;2022-08-19T23:35:34;25.30;97.60
44731;DHT22;30458;47.448;19.032;2022-08-19T23:45:42;25.30;97.20
44731;DHT22;30458;47.448;19.032;2022-08-19T23:55:44;25.20;97.70
